createdAt,value
2019-03-01T00:00:52.317Z,0.00
2019-03-01T00:01:52.544Z,0.00
2019-03-01T00:02:52.766Z,0.00
2019-03-01T00:03:52.992Z,0.00
2019-03-01T00:04:53.222Z,0.00
2019-03-01T00:05:53.440Z,0.00
2019-03-01T00:06:53.666Z,0.00
2019-03-01T00:07:53.894Z,0.00
2019-03-01T00:08:54.118Z,0.00
2019-03-01T00:09:54.343Z,0.00
2019-03-01T00:10:54.569Z,0.00
2019-03-01T00:11:54.798Z,0.00
2019-03-01T00:12:55.018Z,0.00
2019-03-01T00:13:55.243Z,0.00
2019-03-01T00:14:55.471Z,0.00
2019-03-01T00:15:55.697Z,0.00
2019-03-01T00:16:55.925Z,0.00
2019-03-01T00:17:56.152Z,0.00
2019-03-01T00:18:56.379Z,0.00
2019-03-01T00:19:56.607Z,0.00
2019-03-01T00:20:56.836Z,0.00
2019-03-01T00:21:57.059Z,0.00
2019-03-01T00:22:57.289Z,0.00
2019-03-01T00:23:57.509Z,0.00
2019-03-01T00:24:57.735Z,0.00
2019-03-01T00:25:57.960Z,0.00
2019-03-01T00:26:58.184Z,0.00
2019-03-01T00:27:58.411Z,0.00
2019-03-01T00:28:58.644Z,0.00
2019-03-01T00:29:58.869Z,0.00
2019-03-01T00:30:59.088Z,0.00
2019-03-01T00:31:59.316Z,0.00
2019-03-01T00:32:59.544Z,0.00
2019-03-01T00:33:59.772Z,0.00
2019-03-01T00:34:59.998Z,0.00
2019-03-01T00:36:00.219Z,0.00
2019-03-01T00:37:00.450Z,0.00
2019-03-01T00:38:00.697Z,0.00
2019-03-01T00:39:00.897Z,0.00
2019-03-01T00:40:01.124Z,0.00
2019-03-01T00:41:01.350Z,0.00
2019-03-01T00:42:01.573Z,0.00
2019-03-01T00:43:01.809Z,0.00
2019-03-01T00:44:02.035Z,0.00
2019-03-01T00:45:02.261Z,0.00
2019-03-01T00:46:02.487Z,0.00
2019-03-01T00:47:02.714Z,0.00
2019-03-01T00:48:02.939Z,0.00
2019-03-01T00:49:03.161Z,0.00
2019-03-01T00:50:03.394Z,0.00
2019-03-01T00:51:03.617Z,0.00
2019-03-01T00:52:03.845Z,0.00
2019-03-01T00:53:04.065Z,0.00
2019-03-01T00:54:04.291Z,0.00
2019-03-01T00:55:04.516Z,0.00
2019-03-01T00:56:04.745Z,0.00
2019-03-01T00:57:04.970Z,0.00
2019-03-01T00:58:05.194Z,0.00
2019-03-01T00:59:05.418Z,0.00
2019-03-01T01:00:05.642Z,0.00
2019-03-01T01:01:05.868Z,0.00
2019-03-01T01:02:06.095Z,0.00
2019-03-01T01:03:06.318Z,0.00
2019-03-01T01:04:06.549Z,0.00
2019-03-01T01:05:06.770Z,0.00
2019-03-01T01:06:06.995Z,0.00
2019-03-01T01:07:07.222Z,0.00
2019-03-01T01:08:07.447Z,0.00
2019-03-01T01:09:07.690Z,0.00
2019-03-01T01:10:07.893Z,0.00
2019-03-01T01:11:08.119Z,0.00
2019-03-01T01:12:08.343Z,0.00
2019-03-01T01:13:08.569Z,0.00
2019-03-01T01:14:08.795Z,0.00
2019-03-01T01:15:09.021Z,0.00
2019-03-01T01:16:09.244Z,0.00
2019-03-01T01:17:09.472Z,0.00
2019-03-01T01:18:09.701Z,0.00
2019-03-01T01:19:09.921Z,0.00
2019-03-01T01:20:10.147Z,0.00
2019-03-01T01:21:10.373Z,0.00
2019-03-01T01:22:10.603Z,0.00
2019-03-01T01:23:10.819Z,0.00
2019-03-01T01:24:11.042Z,0.00
2019-03-01T01:25:11.266Z,0.00
2019-03-01T01:26:11.491Z,0.00
2019-03-01T01:27:11.716Z,0.00
2019-03-01T01:28:11.976Z,0.00
2019-03-01T01:29:12.173Z,0.00
2019-03-01T01:30:12.514Z,0.00
2019-03-01T01:31:12.603Z,0.00
2019-03-01T01:32:12.825Z,0.00
2019-03-01T01:33:13.048Z,0.00
2019-03-01T01:34:13.273Z,0.00
2019-03-01T01:35:13.497Z,0.00
2019-03-01T01:36:13.723Z,0.00
2019-03-01T01:37:13.942Z,0.00
2019-03-01T01:38:14.175Z,0.00
2019-03-01T01:39:14.393Z,0.00
2019-03-01T01:40:14.616Z,0.00
2019-03-01T01:41:14.839Z,0.00
2019-03-01T01:42:15.069Z,0.00
2019-03-01T01:43:15.290Z,0.00
2019-03-01T01:44:15.515Z,0.00
2019-03-01T01:45:15.740Z,0.00
2019-03-01T01:46:15.973Z,0.00
2019-03-01T01:47:16.193Z,0.00
2019-03-01T01:48:16.417Z,0.00
2019-03-01T01:49:16.637Z,0.00
2019-03-01T01:50:16.862Z,0.00
2019-03-01T01:51:17.095Z,0.00
2019-03-01T01:52:17.327Z,0.00
2019-03-01T01:53:17.534Z,0.00
2019-03-01T01:54:17.757Z,0.00
2019-03-01T01:55:17.983Z,0.00
2019-03-01T01:56:18.207Z,0.00
2019-03-01T01:57:18.432Z,0.00
2019-03-01T01:58:18.656Z,0.00
2019-03-01T01:59:18.883Z,0.00
2019-03-01T02:00:19.119Z,0.00
2019-03-01T02:01:19.342Z,0.00
2019-03-01T02:02:19.565Z,0.00
2019-03-01T02:03:19.791Z,0.00
2019-03-01T02:04:20.016Z,0.00
2019-03-01T02:05:20.242Z,0.00
2019-03-01T02:06:20.471Z,0.00
2019-03-01T02:07:20.691Z,0.00
2019-03-01T02:08:20.914Z,0.00
2019-03-01T02:09:21.140Z,0.00
2019-03-01T02:10:21.366Z,0.00
2019-03-01T02:11:21.588Z,0.00
2019-03-01T02:12:21.814Z,0.00
2019-03-01T02:13:22.040Z,0.00
2019-03-01T02:14:22.266Z,0.00
2019-03-01T02:15:22.489Z,0.00
2019-03-01T02:16:22.716Z,0.00
2019-03-01T02:17:22.943Z,0.00
2019-03-01T02:18:23.166Z,0.00
2019-03-01T02:19:23.387Z,0.00
2019-03-01T02:20:23.610Z,0.00
2019-03-01T02:21:23.832Z,0.00
2019-03-01T02:22:24.061Z,0.00
2019-03-01T02:23:24.283Z,0.00
2019-03-01T02:24:24.512Z,0.00
2019-03-01T02:25:24.738Z,0.00
2019-03-01T02:26:24.960Z,0.00
2019-03-01T02:27:25.183Z,0.00
2019-03-01T02:28:25.408Z,0.00
2019-03-01T02:29:25.633Z,0.00
2019-03-01T02:30:25.867Z,0.00
2019-03-01T02:31:26.084Z,0.00
2019-03-01T02:32:26.309Z,0.00
2019-03-01T02:33:26.533Z,0.00
2019-03-01T02:34:26.758Z,0.00
2019-03-01T02:35:26.984Z,0.00
2019-03-01T02:36:27.210Z,0.00
2019-03-01T02:37:27.430Z,0.00
2019-03-01T02:38:27.659Z,0.00
2019-03-01T02:39:27.879Z,0.00
2019-03-01T02:40:28.107Z,0.00
2019-03-01T02:41:28.335Z,0.00
2019-03-01T02:42:28.556Z,0.00
2019-03-01T02:43:28.780Z,0.00
2019-03-01T02:44:29.006Z,0.00
2019-03-01T02:45:29.230Z,0.00
2019-03-01T02:46:29.461Z,0.00
2019-03-01T02:47:29.681Z,0.00
2019-03-01T02:48:29.915Z,0.00
2019-03-01T02:49:30.129Z,0.00
2019-03-01T02:50:30.353Z,0.00
2019-03-01T02:51:30.576Z,0.00
2019-03-01T02:52:30.805Z,0.00
2019-03-01T02:53:31.036Z,0.00
2019-03-01T02:54:31.249Z,0.00
2019-03-01T02:55:31.476Z,0.00
2019-03-01T02:56:31.702Z,0.00
2019-03-01T02:57:31.929Z,0.00
2019-03-01T02:58:32.148Z,0.00
2019-03-01T02:59:32.374Z,0.00
2019-03-01T03:00:32.600Z,0.00
2019-03-01T03:01:32.823Z,0.00
2019-03-01T03:02:33.043Z,0.00
2019-03-01T03:03:33.271Z,0.00
2019-03-01T03:04:33.496Z,0.00
2019-03-01T03:05:33.720Z,0.00
2019-03-01T03:06:33.945Z,0.00
2019-03-01T03:07:34.166Z,0.00
2019-03-01T03:08:34.394Z,0.00
2019-03-01T03:09:34.617Z,0.00
2019-03-01T03:10:34.844Z,0.00
2019-03-01T03:11:35.067Z,0.00
2019-03-01T03:12:35.291Z,0.00
2019-03-01T03:13:35.516Z,0.00
2019-03-01T03:14:35.749Z,0.00
2019-03-01T03:15:35.969Z,0.00
2019-03-01T03:16:36.193Z,0.00
2019-03-01T03:17:36.414Z,0.00
2019-03-01T03:18:36.643Z,0.00
2019-03-01T03:19:36.868Z,0.00
2019-03-01T03:20:37.092Z,0.00
2019-03-01T03:21:37.320Z,0.00
2019-03-01T03:22:37.543Z,0.00
2019-03-01T03:23:37.777Z,0.00
2019-03-01T03:24:37.995Z,0.00
2019-03-01T03:25:38.215Z,0.00
2019-03-01T03:26:38.440Z,0.00
2019-03-01T03:27:38.665Z,0.00
2019-03-01T03:28:38.898Z,0.00
2019-03-01T03:29:39.117Z,0.00
2019-03-01T03:30:39.338Z,0.00
2019-03-01T03:31:39.563Z,0.00
2019-03-01T03:32:39.789Z,0.00
2019-03-01T03:33:40.055Z,0.00
2019-03-01T03:34:40.299Z,0.00
2019-03-01T03:35:40.463Z,0.00
2019-03-01T03:36:40.690Z,0.00
2019-03-01T03:37:40.910Z,0.00
2019-03-01T03:38:41.143Z,0.00
2019-03-01T03:39:41.392Z,0.00
2019-03-01T03:40:41.584Z,0.00
2019-03-01T03:41:41.819Z,0.00
2019-03-01T03:42:42.043Z,0.00
2019-03-01T03:43:42.274Z,0.00
2019-03-01T03:44:42.483Z,0.00
2019-03-01T03:45:42.707Z,0.00
2019-03-01T03:46:42.931Z,0.00
2019-03-01T03:47:43.153Z,0.00
2019-03-01T03:48:43.377Z,0.00
2019-03-01T03:49:43.615Z,0.00
2019-03-01T03:50:43.826Z,0.00
2019-03-01T03:51:44.049Z,0.00
2019-03-01T03:52:44.280Z,0.00
2019-03-01T03:53:44.498Z,0.00
2019-03-01T03:54:44.724Z,0.00
2019-03-01T03:55:44.950Z,0.00
2019-03-01T03:56:45.177Z,0.00
2019-03-01T03:57:45.395Z,0.00
2019-03-01T03:58:45.621Z,0.00
2019-03-01T03:59:45.845Z,0.00
2019-03-01T04:00:46.069Z,0.00
2019-03-01T04:01:46.296Z,0.00
2019-03-01T04:02:46.520Z,0.00
2019-03-01T04:03:46.739Z,0.00
2019-03-01T04:04:46.972Z,0.00
2019-03-01T04:05:47.194Z,0.00
2019-03-01T04:06:47.423Z,0.00
2019-03-01T04:07:47.679Z,0.00
2019-03-01T04:08:47.869Z,0.00
2019-03-01T04:09:48.102Z,0.00
2019-03-01T04:10:48.317Z,0.00
2019-03-01T04:11:48.540Z,0.00
2019-03-01T04:12:48.769Z,0.00
2019-03-01T04:13:48.992Z,0.00
2019-03-01T04:14:49.212Z,0.00
2019-03-01T04:15:49.439Z,0.00
2019-03-01T04:16:49.661Z,0.00
2019-03-01T04:17:49.886Z,0.00
2019-03-01T04:18:50.112Z,0.00
2019-03-01T04:19:50.336Z,0.00
2019-03-01T04:20:50.562Z,0.00
2019-03-01T04:21:50.794Z,0.00
2019-03-01T04:22:51.013Z,0.00
2019-03-01T04:23:51.234Z,0.00
2019-03-01T04:24:51.460Z,0.00
2019-03-01T04:25:51.682Z,0.00
2019-03-01T04:26:51.908Z,0.00
2019-03-01T04:27:53.426Z,0.00
2019-03-01T04:28:52.361Z,0.00
2019-03-01T04:29:52.582Z,0.00
2019-03-01T04:30:52.809Z,0.00
2019-03-01T04:31:53.030Z,0.00
2019-03-01T04:32:53.256Z,0.00
2019-03-01T04:33:53.477Z,0.00
2019-03-01T04:34:53.730Z,0.00
2019-03-01T04:35:53.926Z,0.00
2019-03-01T04:36:54.154Z,0.00
2019-03-01T04:37:54.398Z,0.00
2019-03-01T04:38:54.604Z,0.00
2019-03-01T04:39:54.833Z,0.00
2019-03-01T04:40:55.062Z,0.00
2019-03-01T04:41:55.282Z,0.00
2019-03-01T04:42:55.500Z,0.00
2019-03-01T04:43:55.730Z,0.00
2019-03-01T04:44:55.953Z,0.00
2019-03-01T04:45:56.175Z,0.00
2019-03-01T04:46:56.398Z,0.00
2019-03-01T04:47:56.629Z,0.00
2019-03-01T04:48:56.856Z,0.00
2019-03-01T04:49:57.079Z,0.00
2019-03-01T04:50:57.306Z,0.00
2019-03-01T04:51:57.530Z,0.00
2019-03-01T04:52:57.757Z,0.00
2019-03-01T04:53:57.981Z,0.00
2019-03-01T04:54:58.210Z,0.00
2019-03-01T04:55:58.435Z,0.00
2019-03-01T04:56:58.663Z,0.00
2019-03-01T04:57:58.887Z,0.00
2019-03-01T04:58:59.110Z,0.00
2019-03-01T04:59:59.334Z,0.00
2019-03-01T05:00:59.558Z,0.00
2019-03-01T05:01:59.786Z,0.00
2019-03-01T05:03:00.010Z,0.00
2019-03-01T05:04:00.236Z,0.00
2019-03-01T05:05:00.460Z,0.00
2019-03-01T05:06:00.686Z,0.00
2019-03-01T05:07:00.907Z,0.00
2019-03-01T05:08:01.132Z,0.00
2019-03-01T05:09:01.354Z,0.00
2019-03-01T05:10:01.580Z,0.00
2019-03-01T05:11:01.805Z,0.00
2019-03-01T05:12:02.030Z,0.00
2019-03-01T05:13:02.259Z,0.00
2019-03-01T05:14:02.482Z,0.00
2019-03-01T05:15:02.707Z,0.00
2019-03-01T05:16:02.932Z,0.00
2019-03-01T05:17:03.157Z,0.00
2019-03-01T05:18:03.381Z,0.00
2019-03-01T05:19:03.607Z,0.00
2019-03-01T05:20:03.831Z,0.00
2019-03-01T05:21:04.054Z,0.00
2019-03-01T05:22:04.279Z,0.00
2019-03-01T05:23:04.501Z,0.00
2019-03-01T05:24:04.724Z,0.00
2019-03-01T05:25:04.949Z,0.00
2019-03-01T05:26:05.174Z,0.00
2019-03-01T05:27:05.403Z,0.00
2019-03-01T05:28:05.624Z,0.00
2019-03-01T05:29:05.845Z,0.00
2019-03-01T05:30:06.075Z,0.00
2019-03-01T05:31:06.296Z,0.00
2019-03-01T05:32:06.522Z,0.00
2019-03-01T05:33:06.747Z,0.00
2019-03-01T05:34:06.974Z,0.00
2019-03-01T05:35:07.200Z,0.00
2019-03-01T05:36:07.428Z,0.00
2019-03-01T05:37:07.653Z,0.00
2019-03-01T05:38:07.879Z,0.00
2019-03-01T05:39:08.102Z,0.00
2019-03-01T05:40:08.328Z,0.00
2019-03-01T05:41:08.553Z,0.00
2019-03-01T05:42:08.800Z,0.00
2019-03-01T05:43:09.019Z,0.00
2019-03-01T05:44:09.222Z,0.00
2019-03-01T05:45:09.445Z,0.00
2019-03-01T05:46:09.669Z,0.00
2019-03-01T05:47:09.896Z,4.00
2019-03-01T05:48:10.124Z,4.00
2019-03-01T05:49:10.350Z,4.00
2019-03-01T05:50:10.573Z,8.00
2019-03-01T05:51:10.796Z,4.00
2019-03-01T05:52:11.023Z,8.00
2019-03-01T05:53:11.248Z,8.00
2019-03-01T05:54:11.475Z,12.00
2019-03-01T05:55:11.694Z,12.00
2019-03-01T05:56:11.920Z,16.00
2019-03-01T05:57:12.143Z,16.00
2019-03-01T05:58:16.584Z,20.00
2019-03-01T05:59:12.595Z,24.00
2019-03-01T06:00:12.900Z,24.00
2019-03-01T06:01:12.997Z,28.00
2019-03-01T06:02:13.219Z,28.00
2019-03-01T06:03:13.444Z,28.00
2019-03-01T06:04:13.671Z,28.00
2019-03-01T06:05:13.897Z,32.00
2019-03-01T06:06:14.122Z,36.00
2019-03-01T06:07:14.347Z,40.00
2019-03-01T06:08:14.572Z,40.00
2019-03-01T06:09:14.805Z,44.00
2019-03-01T06:10:15.022Z,44.00
2019-03-01T06:11:15.248Z,44.00
2019-03-01T06:12:15.473Z,44.00
2019-03-01T06:13:15.698Z,44.00
2019-03-01T06:14:15.924Z,40.00
2019-03-01T06:15:16.146Z,40.00
2019-03-01T06:16:16.373Z,40.00
2019-03-01T06:17:16.599Z,44.00
2019-03-01T06:18:16.824Z,48.00
2019-03-01T06:19:17.050Z,56.00
2019-03-01T06:20:17.276Z,64.00
2019-03-01T06:21:17.500Z,72.00
2019-03-01T06:22:17.726Z,84.00
2019-03-01T06:23:17.949Z,108.00
2019-03-01T06:24:18.186Z,124.00
2019-03-01T06:25:18.402Z,148.00
2019-03-01T06:26:18.624Z,160.00
2019-03-01T06:27:18.851Z,156.00
2019-03-01T06:28:19.093Z,152.00
2019-03-01T06:29:19.305Z,148.00
2019-03-01T06:30:19.528Z,144.00
2019-03-01T06:31:19.756Z,144.00
2019-03-01T06:32:19.988Z,152.00
2019-03-01T06:33:20.211Z,164.00
2019-03-01T06:34:20.434Z,164.00
2019-03-01T06:35:20.659Z,168.00
2019-03-01T06:36:20.881Z,180.00
2019-03-01T06:37:21.107Z,200.00
2019-03-01T06:38:21.336Z,208.00
2019-03-01T06:39:21.563Z,216.00
2019-03-01T06:40:21.785Z,220.00
2019-03-01T06:41:22.010Z,220.00
2019-03-01T06:42:22.237Z,240.00
2019-03-01T06:43:22.467Z,284.00
2019-03-01T06:44:22.687Z,312.00
2019-03-01T06:45:22.914Z,340.00
2019-03-01T06:46:23.144Z,352.00
2019-03-01T06:47:23.369Z,344.00
2019-03-01T06:48:23.593Z,332.00
2019-03-01T06:49:23.823Z,332.00
2019-03-01T06:50:24.043Z,332.00
2019-03-01T06:51:28.891Z,352.00
2019-03-01T06:52:24.495Z,380.00
2019-03-01T06:53:24.727Z,424.00
2019-03-01T06:54:24.953Z,460.00
2019-03-01T06:55:25.174Z,516.00
2019-03-01T06:56:25.394Z,544.00
2019-03-01T06:57:25.622Z,552.00
2019-03-01T06:58:25.847Z,604.00
2019-03-01T06:59:26.075Z,668.00
2019-03-01T07:00:26.303Z,708.00
2019-03-01T07:01:26.524Z,724.00
2019-03-01T07:02:26.750Z,728.00
2019-03-01T07:03:26.970Z,728.00
2019-03-01T07:04:27.199Z,768.00
2019-03-01T07:05:27.426Z,816.00
2019-03-01T07:06:27.650Z,844.00
2019-03-01T07:07:27.877Z,860.00
2019-03-01T07:08:28.107Z,864.00
2019-03-01T07:09:28.328Z,852.00
2019-03-01T07:10:28.596Z,832.00
2019-03-01T07:11:28.779Z,788.00
2019-03-01T07:12:29.000Z,688.00
2019-03-01T07:13:29.224Z,576.00
2019-03-01T07:14:29.455Z,512.00
2019-03-01T07:15:29.678Z,476.00
2019-03-01T07:16:29.906Z,464.00
2019-03-01T07:17:30.130Z,444.00
2019-03-01T07:18:30.353Z,468.00
2019-03-01T07:19:30.577Z,512.00
2019-03-01T07:20:30.803Z,548.00
2019-03-01T07:21:31.031Z,572.00
2019-03-01T07:22:31.261Z,580.00
2019-03-01T07:23:36.820Z,592.00
2019-03-01T07:24:31.706Z,636.00
2019-03-01T07:25:31.929Z,696.00
2019-03-01T07:26:32.157Z,728.00
2019-03-01T07:27:32.393Z,744.00
2019-03-01T07:28:32.608Z,800.00
2019-03-01T07:29:32.832Z,824.00
2019-03-01T07:30:33.056Z,824.00
2019-03-01T07:31:33.286Z,844.00
2019-03-01T07:32:33.511Z,908.00
2019-03-01T07:33:33.735Z,1036.00
2019-03-01T07:34:33.964Z,1092.00
2019-03-01T07:35:34.188Z,1036.00
2019-03-01T07:36:34.413Z,1012.00
2019-03-01T07:37:34.638Z,968.00
2019-03-01T07:38:34.863Z,896.00
2019-03-01T07:39:35.087Z,844.00
2019-03-01T07:40:35.313Z,812.00
2019-03-01T07:41:35.534Z,860.00
2019-03-01T07:42:35.763Z,908.00
2019-03-01T07:43:35.992Z,956.00
2019-03-01T07:44:36.213Z,1056.00
2019-03-01T07:45:36.437Z,1164.00
2019-03-01T07:46:36.664Z,1192.00
2019-03-01T07:47:36.891Z,1272.00
2019-03-01T07:48:37.107Z,1380.00
2019-03-01T07:49:37.345Z,1484.00
2019-03-01T07:50:37.572Z,1568.00
2019-03-01T07:51:37.798Z,1620.00
2019-03-01T07:52:38.023Z,1604.00
2019-03-01T07:53:41.791Z,1540.00
2019-03-01T07:54:38.482Z,1476.00
2019-03-01T07:55:38.699Z,1504.00
2019-03-01T07:56:39.839Z,1536.00
2019-03-01T07:57:39.153Z,1492.00
2019-03-01T07:58:39.379Z,1544.00
2019-03-01T07:59:39.627Z,1628.00
2019-03-01T08:00:39.836Z,1712.00
2019-03-01T08:01:40.069Z,1652.00
2019-03-01T08:02:40.742Z,1592.00
2019-03-01T08:03:40.511Z,1588.00
2019-03-01T08:04:40.734Z,1576.00
2019-03-01T08:05:40.962Z,1604.00
2019-03-01T08:06:41.189Z,1692.00
2019-03-01T08:07:41.412Z,1768.00
2019-03-01T08:08:41.635Z,1772.00
2019-03-01T08:09:44.727Z,1788.00
2019-03-01T08:10:42.095Z,1924.00
2019-03-01T08:11:42.322Z,2028.00
2019-03-01T08:12:43.483Z,2004.00
2019-03-01T08:13:42.765Z,1988.00
2019-03-01T08:14:42.995Z,2020.00
2019-03-01T08:15:44.910Z,2048.00
2019-03-01T08:16:43.445Z,2236.00
2019-03-01T08:17:43.671Z,2492.00
2019-03-01T08:18:44.166Z,2604.00
2019-03-01T08:19:45.706Z,2552.00
2019-03-01T08:20:44.353Z,2508.00
2019-03-01T08:21:46.066Z,2572.00
2019-03-01T08:22:48.714Z,2744.00
2019-03-01T08:23:45.023Z,2992.00
2019-03-01T08:24:46.670Z,3208.00
2019-03-01T08:25:45.476Z,3252.00
2019-03-01T08:26:45.697Z,3416.00
2019-03-01T08:27:47.177Z,3396.00
2019-03-01T08:28:46.148Z,3344.00
2019-03-01T08:29:46.385Z,3256.00
2019-03-01T08:30:46.914Z,3268.00
2019-03-01T08:31:46.837Z,3272.00
2019-03-01T08:32:47.054Z,3244.00
2019-03-01T08:33:47.280Z,3148.00
2019-03-01T08:34:49.863Z,2960.00
2019-03-01T08:35:47.733Z,2792.00
2019-03-01T08:36:47.956Z,2680.00
2019-03-01T08:37:49.779Z,2688.00
2019-03-01T08:38:48.405Z,2804.00
2019-03-01T08:39:49.706Z,2972.00
2019-03-01T08:40:49.921Z,3160.00
2019-03-01T08:41:49.090Z,3296.00
2019-03-01T08:42:49.313Z,3364.00
2019-03-01T08:43:49.540Z,3372.00
2019-03-01T08:44:49.764Z,3412.00
2019-03-01T08:45:49.991Z,3620.00
2019-03-01T08:46:50.213Z,3676.00
2019-03-01T08:47:50.441Z,3728.00
2019-03-01T08:48:50.670Z,3796.00
2019-03-01T08:49:50.895Z,3908.00
2019-03-01T08:50:51.122Z,3880.00
2019-03-01T08:51:51.348Z,4184.00
2019-03-01T08:52:51.573Z,4552.00
2019-03-01T08:53:51.811Z,4928.00
2019-03-01T08:54:52.026Z,5024.00
2019-03-01T08:55:52.322Z,4952.00
2019-03-01T08:56:52.480Z,4796.00
2019-03-01T08:57:52.707Z,4404.00
2019-03-01T08:58:52.935Z,4000.00
2019-03-01T08:59:53.163Z,3488.00
2019-03-01T09:00:59.621Z,2944.00
2019-03-01T09:01:53.616Z,2604.00
2019-03-01T09:02:53.839Z,2332.00
2019-03-01T09:03:54.065Z,2280.00
2019-03-01T09:04:54.291Z,2496.00
2019-03-01T09:05:54.521Z,2676.00
2019-03-01T09:06:54.744Z,2848.00
2019-03-01T09:07:54.970Z,2840.00
2019-03-01T09:08:55.197Z,2680.00
2019-03-01T09:09:57.186Z,2564.00
2019-03-01T09:10:55.648Z,2540.00
2019-03-01T09:11:55.876Z,2564.00
2019-03-01T09:12:56.104Z,2708.00
2019-03-01T09:13:56.332Z,2960.00
2019-03-01T09:14:57.097Z,3328.00
2019-03-01T09:15:56.779Z,3492.00
2019-03-01T09:16:57.007Z,3396.00
2019-03-01T09:17:57.237Z,3600.00
2019-03-01T09:18:57.461Z,3824.00
2019-03-01T09:20:00.225Z,4012.00
2019-03-01T09:21:04.542Z,4288.00
2019-03-01T09:21:58.138Z,4600.00
2019-03-01T09:22:58.400Z,4688.00
2019-03-01T09:23:58.609Z,4540.00
2019-03-01T09:24:58.837Z,4276.00
2019-03-01T09:25:59.044Z,4000.00
2019-03-01T09:26:59.272Z,3640.00
2019-03-01T09:27:59.492Z,3380.00
2019-03-01T09:28:59.721Z,3136.00
2019-03-01T09:30:03.352Z,3072.00
2019-03-01T09:31:00.172Z,3164.00
2019-03-01T09:32:00.435Z,3484.00
2019-03-01T09:33:00.628Z,3936.00
2019-03-01T09:34:00.852Z,4384.00
2019-03-01T09:35:04.304Z,4636.00
2019-03-01T09:36:01.312Z,4784.00
2019-03-01T09:37:01.532Z,4876.00
2019-03-01T09:38:04.603Z,4716.00
2019-03-01T09:39:01.984Z,4848.00
2019-03-01T09:40:05.583Z,5148.00
2019-03-01T09:41:04.646Z,5324.00
2019-03-01T09:42:04.465Z,5292.00
2019-03-01T09:43:02.893Z,5404.00
2019-03-01T09:44:03.809Z,5716.00
2019-03-01T09:45:03.345Z,6092.00
2019-03-01T09:46:03.572Z,6264.00
2019-03-01T09:47:03.801Z,6168.00
2019-03-01T09:48:05.087Z,5880.00
2019-03-01T09:49:04.251Z,5724.00
2019-03-01T09:50:04.476Z,5788.00
2019-03-01T09:51:07.296Z,5716.00
2019-03-01T09:52:04.930Z,5356.00
2019-03-01T09:53:05.160Z,4992.00
2019-03-01T09:54:06.531Z,4724.00
2019-03-01T09:55:05.650Z,4584.00
2019-03-01T09:56:05.840Z,4504.00
2019-03-01T09:57:06.065Z,4180.00
2019-03-01T09:58:08.353Z,3752.00
2019-03-01T09:59:06.525Z,3744.00
2019-03-01T10:00:06.749Z,3980.00
2019-03-01T10:01:06.980Z,4160.00
2019-03-01T10:02:07.204Z,4312.00
2019-03-01T10:03:07.438Z,4344.00
2019-03-01T10:04:07.658Z,4356.00
2019-03-01T10:05:07.888Z,4580.00
2019-03-01T10:06:08.116Z,4964.00
2019-03-01T10:07:08.345Z,5392.00
2019-03-01T10:08:08.582Z,5664.00
2019-03-01T10:09:08.785Z,5712.00
2019-03-01T10:10:09.014Z,5784.00
2019-03-01T10:11:09.240Z,6036.00
2019-03-01T10:12:09.465Z,6408.00
2019-03-01T10:13:09.693Z,6944.00
2019-03-01T10:14:09.921Z,7464.00
2019-03-01T10:15:10.146Z,7828.00
2019-03-01T10:16:10.373Z,7920.00
2019-03-01T10:17:10.600Z,7808.00
2019-03-01T10:18:10.828Z,7652.00
2019-03-01T10:19:11.055Z,7640.00
2019-03-01T10:20:11.284Z,7880.00
2019-03-01T10:21:11.511Z,8116.00
2019-03-01T10:22:11.735Z,8276.00
2019-03-01T10:23:11.965Z,8324.00
2019-03-01T10:24:12.192Z,8432.00
2019-03-01T10:25:13.065Z,8480.00
2019-03-01T10:26:12.667Z,8356.00
2019-03-01T10:27:12.896Z,8076.00
2019-03-01T10:28:13.126Z,7740.00
2019-03-01T10:29:13.350Z,7668.00
2019-03-01T10:30:13.587Z,7544.00
2019-03-01T10:31:13.834Z,7472.00
2019-03-01T10:32:14.058Z,7304.00
2019-03-01T10:33:14.315Z,6968.00
2019-03-01T10:34:14.503Z,6564.00
2019-03-01T10:35:14.756Z,6476.00
2019-03-01T10:36:14.968Z,6464.00
2019-03-01T10:37:15.185Z,6384.00
2019-03-01T10:38:15.414Z,6248.00
2019-03-01T10:39:15.642Z,6076.00
2019-03-01T10:40:15.870Z,5964.00
2019-03-01T10:41:16.093Z,6004.00
2019-03-01T10:42:16.321Z,6172.00
2019-03-01T10:43:16.551Z,6320.00
2019-03-01T10:44:16.783Z,6476.00
2019-03-01T10:45:17.008Z,6632.00
2019-03-01T10:46:17.236Z,6764.00
2019-03-01T10:47:17.460Z,6772.00
2019-03-01T10:48:17.693Z,6640.00
2019-03-01T10:49:17.920Z,6456.00
2019-03-01T10:50:18.148Z,6176.00
2019-03-01T10:51:18.378Z,5840.00
2019-03-01T10:52:18.601Z,5436.00
2019-03-01T10:53:18.831Z,4976.00
2019-03-01T10:54:19.057Z,4512.00
2019-03-01T10:55:19.284Z,4200.00
2019-03-01T10:56:19.515Z,4080.00
2019-03-01T10:57:19.745Z,4020.00
2019-03-01T10:58:19.967Z,3964.00
2019-03-01T10:59:20.199Z,3884.00
2019-03-01T11:00:20.535Z,3788.00
2019-03-01T11:01:20.638Z,3716.00
2019-03-01T11:02:20.864Z,3604.00
2019-03-01T11:03:21.093Z,3468.00
2019-03-01T11:04:21.324Z,3464.00
2019-03-01T11:05:21.548Z,3612.00
2019-03-01T11:06:21.775Z,3728.00
2019-03-01T11:07:22.004Z,3744.00
2019-03-01T11:08:22.230Z,3780.00
2019-03-01T11:09:22.458Z,3792.00
2019-03-01T11:10:22.687Z,3852.00
2019-03-01T11:11:22.912Z,3896.00
2019-03-01T11:12:23.142Z,3844.00
2019-03-01T11:13:23.370Z,3656.00
2019-03-01T11:14:23.599Z,3440.00
2019-03-01T11:15:23.825Z,3276.00
2019-03-01T11:16:24.055Z,3072.00
2019-03-01T11:17:24.283Z,3020.00
2019-03-01T11:18:24.514Z,3212.00
2019-03-01T11:19:24.742Z,3448.00
2019-03-01T11:20:24.968Z,3736.00
2019-03-01T11:21:25.198Z,4060.00
2019-03-01T11:22:25.423Z,4312.00
2019-03-01T11:23:25.652Z,4476.00
2019-03-01T11:24:25.880Z,4440.00
2019-03-01T11:25:26.114Z,4344.00
2019-03-01T11:26:26.329Z,4220.00
2019-03-01T11:27:26.563Z,4064.00
2019-03-01T11:28:26.793Z,3848.00
2019-03-01T11:29:27.022Z,3640.00
2019-03-01T11:30:27.255Z,3512.00
2019-03-01T11:31:27.478Z,3448.00
2019-03-01T11:32:27.707Z,3444.00
2019-03-01T11:33:27.932Z,3508.00
2019-03-01T11:34:28.162Z,3676.00
2019-03-01T11:35:28.390Z,4020.00
2019-03-01T11:36:28.620Z,4484.00
2019-03-01T11:37:28.850Z,5144.00
2019-03-01T11:38:29.089Z,5900.00
2019-03-01T11:39:29.305Z,6492.00
2019-03-01T11:40:29.534Z,6804.00
2019-03-01T11:41:29.766Z,6868.00
2019-03-01T11:42:29.989Z,6756.00
2019-03-01T11:43:30.221Z,6680.00
2019-03-01T11:44:30.450Z,6636.00
2019-03-01T11:45:30.676Z,6600.00
2019-03-01T11:46:30.906Z,6620.00
2019-03-01T11:47:31.129Z,6704.00
2019-03-01T11:48:31.389Z,6864.00
2019-03-01T11:49:31.589Z,6936.00
2019-03-01T11:50:31.822Z,6924.00
2019-03-01T11:51:32.047Z,6744.00
2019-03-01T11:52:32.272Z,6408.00
2019-03-01T11:53:32.497Z,6212.00
2019-03-01T11:54:32.727Z,6352.00
2019-03-01T11:55:33.028Z,6656.00
2019-03-01T11:56:33.185Z,6852.00
2019-03-01T11:57:33.410Z,6772.00
2019-03-01T11:58:33.638Z,6612.00
2019-03-01T11:59:33.866Z,6456.00
2019-03-01T12:00:34.094Z,6336.00
2019-03-01T12:01:34.324Z,6304.00
2019-03-01T12:02:34.551Z,6384.00
2019-03-01T12:03:34.782Z,6700.00
2019-03-01T12:04:35.016Z,7036.00
2019-03-01T12:05:35.252Z,7260.00
2019-03-01T12:06:35.468Z,8500.00
2019-03-01T12:07:35.699Z,8376.00
2019-03-01T12:08:35.921Z,7856.00
2019-03-01T12:09:36.146Z,7768.00
2019-03-01T12:10:36.377Z,7700.00
2019-03-01T12:11:36.612Z,7512.00
2019-03-01T12:12:36.830Z,7324.00
2019-03-01T12:13:37.056Z,7264.00
2019-03-01T12:14:37.317Z,7088.00
2019-03-01T12:15:37.545Z,6980.00
2019-03-01T12:16:37.768Z,6840.00
2019-03-01T12:17:38.004Z,6436.00
2019-03-01T12:18:38.227Z,5824.00
2019-03-01T12:19:38.456Z,5048.00
2019-03-01T12:20:38.683Z,4356.00
2019-03-01T12:21:38.934Z,3948.00
2019-03-01T12:22:39.160Z,3760.00
2019-03-01T12:23:39.388Z,3652.00
2019-03-01T12:24:39.613Z,3648.00
2019-03-01T12:25:39.841Z,3684.00
2019-03-01T12:26:40.069Z,3764.00
2019-03-01T12:27:40.301Z,3864.00
2019-03-01T12:28:40.529Z,4004.00
2019-03-01T12:29:40.760Z,4216.00
2019-03-01T12:30:40.983Z,4552.00
2019-03-01T12:31:41.209Z,4932.00
2019-03-01T12:32:41.442Z,5220.00
2019-03-01T12:33:41.669Z,5456.00
2019-03-01T12:34:41.898Z,5684.00
2019-03-01T12:35:42.128Z,5924.00
2019-03-01T12:36:42.351Z,6140.00
2019-03-01T12:37:42.577Z,6308.00
2019-03-01T12:38:42.804Z,6432.00
2019-03-01T12:39:43.033Z,6548.00
2019-03-01T12:40:43.261Z,6604.00
2019-03-01T12:41:43.493Z,6576.00
2019-03-01T12:42:43.719Z,6392.00
2019-03-01T12:43:43.945Z,6140.00
2019-03-01T12:44:44.173Z,5872.00